createdAt,value
2023-05-08T00:04:11.966Z,4.05
2023-05-08T00:09:15.547Z,3.55
2023-05-08T00:14:19.111Z,4.30
2023-05-08T00:19:23.827Z,4.40
2023-05-08T00:24:27.343Z,4.22
2023-05-08T00:29:30.768Z,4.75
2023-05-08T00:34:35.787Z,5.40
2023-05-08T00:39:39.374Z,2.95
2023-05-08T00:44:42.751Z,4.35
2023-05-08T00:49:47.553Z,3.40
2023-05-08T00:54:51.343Z,4.57
2023-05-08T00:59:55.830Z,3.42
2023-05-08T01:05:01.416Z,2.65
2023-05-08T01:10:05.301Z,2.95
2023-05-08T01:15:16.867Z,4.18
2023-05-08T01:20:39.365Z,3.30
2023-05-08T01:26:18.454Z,3.72
2023-05-08T01:31:28.664Z,2.72
2023-05-08T01:36:42.603Z,7.28
2023-05-08T01:42:03.492Z,3.67
2023-05-08T01:47:11.407Z,4.10
2023-05-08T01:52:29.557Z,2.85
2023-05-08T01:57:41.356Z,4.05
2023-05-08T02:02:46.799Z,3.08
2023-05-08T02:07:53.447Z,2.92
2023-05-08T02:12:58.411Z,2.22
2023-05-08T02:18:02.267Z,3.00
2023-05-08T02:23:07.844Z,2.50
2023-05-08T02:28:11.607Z,5.63
2023-05-08T02:33:17.021Z,2.72
2023-05-08T02:38:24.010Z,2.97
2023-05-08T02:43:28.220Z,2.92
2023-05-08T02:48:38.025Z,3.78
2023-05-08T02:53:52.466Z,2.60
2023-05-08T02:59:09.194Z,3.28
2023-05-08T03:04:24.370Z,2.42
2023-05-08T03:09:40.907Z,2.63
2023-05-08T03:14:52.741Z,3.25
2023-05-08T03:20:01.899Z,2.13
2023-05-08T03:25:10.745Z,3.20
2023-05-08T03:30:16.770Z,4.20
2023-05-08T03:35:24.316Z,3.25
2023-05-08T03:40:30.105Z,3.17
2023-05-08T03:45:37.778Z,3.45
2023-05-08T03:50:41.470Z,2.78
2023-05-08T03:55:48.048Z,3.25
2023-05-08T04:01:05.339Z,2.25
2023-05-08T04:06:16.826Z,4.63
2023-05-08T04:11:32.967Z,2.40
2023-05-08T04:16:41.183Z,2.23
2023-05-08T04:21:47.158Z,6.07
2023-05-08T04:26:53.272Z,2.67
2023-05-08T04:31:58.695Z,3.63
2023-05-08T04:37:02.409Z,2.95
2023-05-08T04:42:07.606Z,4.43
2023-05-08T04:47:12.334Z,2.85
2023-05-08T04:52:15.963Z,4.50
2023-05-08T04:57:21.159Z,3.58
2023-05-08T05:02:27.151Z,6.75
2023-05-08T05:07:31.582Z,2.37
2023-05-08T05:12:36.587Z,4.38
2023-05-08T05:17:40.207Z,3.13
2023-05-08T05:22:43.792Z,3.75
2023-05-08T05:27:48.766Z,3.65
2023-05-08T05:32:52.428Z,6.35
2023-05-08T05:37:56.249Z,3.72
2023-05-08T05:43:01.307Z,4.20
2023-05-08T05:48:05.235Z,2.53
2023-05-08T05:53:09.957Z,4.47
2023-05-08T05:58:15.835Z,4.03
2023-05-08T06:03:20.555Z,2.70
2023-05-08T06:08:24.072Z,2.50
2023-05-08T06:13:28.914Z,6.40
2023-05-08T06:18:32.776Z,9.32
2023-05-08T06:23:36.307Z,16.85
2023-05-08T06:28:41.003Z,18.13
2023-05-08T06:33:44.332Z,15.50
2023-05-08T06:38:47.695Z,15.50
2023-05-08T06:43:52.401Z,16.25
2023-05-08T06:48:55.756Z,18.77
2023-05-08T06:53:59.115Z,17.20
2023-05-08T06:59:08.205Z,18.55
2023-05-08T07:04:12.495Z,17.63
2023-05-08T07:09:18.923Z,16.00
2023-05-08T07:14:23.719Z,17.40
2023-05-08T07:19:27.135Z,19.48
2023-05-08T07:24:30.530Z,19.38
2023-05-08T07:29:35.889Z,23.08
2023-05-08T07:34:39.268Z,21.70
2023-05-08T07:39:42.664Z,18.77
2023-05-08T07:44:54.454Z,18.50
2023-05-08T07:49:58.803Z,20.55
2023-05-08T07:55:02.724Z,19.95
2023-05-08T08:00:10.459Z,25.10
2023-05-08T08:05:20.197Z,18.30
2023-05-08T08:10:23.665Z,19.08
2023-05-08T08:15:29.052Z,18.23
2023-05-08T08:20:32.489Z,20.05
2023-05-08T08:25:35.974Z,19.88
2023-05-08T08:30:40.939Z,23.35
2023-05-08T08:35:44.294Z,22.98
2023-05-08T08:40:47.717Z,21.83
2023-05-08T08:45:52.747Z,27.65
2023-05-08T08:51:03.836Z,27.02
2023-05-08T08:56:10.398Z,26.95
2023-05-08T09:01:19.464Z,26.75
2023-05-08T09:06:23.030Z,28.77
2023-05-08T09:11:26.486Z,29.80
2023-05-08T09:16:31.423Z,28.05
2023-05-08T09:21:35.865Z,26.42
2023-05-08T09:26:41.828Z,26.60
2023-05-08T09:31:48.941Z,27.05
2023-05-08T09:36:52.369Z,25.73
2023-05-08T09:41:59.954Z,52.33
2023-05-08T09:47:24.051Z,54.30
2023-05-08T09:52:27.887Z,38.58
2023-05-08T09:57:33.371Z,32.33
2023-05-08T10:02:40.863Z,33.25
2023-05-08T10:12:47.514Z,27.33
2023-05-08T10:17:59.565Z,28.10
2023-05-08T10:23:04.545Z,28.08
2023-05-08T10:28:17.659Z,26.77
2023-05-08T10:33:31.215Z,27.52
2023-05-08T10:38:35.339Z,29.73
2023-05-08T10:43:44.034Z,25.75
2023-05-08T10:48:59.680Z,23.63
2023-05-08T10:54:12.886Z,22.25
2023-05-08T10:59:20.693Z,24.88
2023-05-08T11:04:25.709Z,21.88
2023-05-08T11:09:31.395Z,24.63
2023-05-08T11:14:37.756Z,21.88
2023-05-08T11:19:59.192Z,22.50
2023-05-08T11:25:07.072Z,25.17
2023-05-08T11:30:28.262Z,22.80
2023-05-08T11:35:55.633Z,24.25
2023-05-08T11:46:18.782Z,21.25
2023-05-08T11:51:23.754Z,18.85
2023-05-08T11:56:27.449Z,20.30
2023-05-08T12:01:32.984Z,18.58
2023-05-08T12:06:40.323Z,17.70
2023-05-08T12:11:45.410Z,16.73
2023-05-08T12:16:48.835Z,15.52
2023-05-08T12:21:53.612Z,16.45
2023-05-08T12:26:57.165Z,17.90
2023-05-08T12:32:01.011Z,14.68
2023-05-08T12:37:06.992Z,13.45
2023-05-08T12:42:10.326Z,14.65
2023-05-08T12:47:13.784Z,16.40
2023-05-08T12:52:19.357Z,15.20
2023-05-08T12:57:22.813Z,12.77
2023-05-08T13:02:27.338Z,12.65
2023-05-08T13:07:35.790Z,14.93
2023-05-08T13:12:39.237Z,13.32
2023-05-08T13:17:42.830Z,13.75
2023-05-08T13:22:47.611Z,13.85
2023-05-08T13:27:50.986Z,14.80
2023-05-08T13:32:55.060Z,13.05
2023-05-08T13:38:00.542Z,12.68
2023-05-08T13:43:03.965Z,11.40
2023-05-08T13:48:08.229Z,13.82
2023-05-08T13:53:13.047Z,13.05
2023-05-08T13:58:16.416Z,11.60
2023-05-08T14:03:19.861Z,11.98
2023-05-08T14:08:24.671Z,11.25
2023-05-08T14:13:28.162Z,11.00
2023-05-08T14:18:31.599Z,11.60
2023-05-08T14:23:37.595Z,12.10
2023-05-08T14:28:40.960Z,11.85
2023-05-08T14:33:44.319Z,10.68
2023-05-08T14:38:49.164Z,10.38
2023-05-08T14:43:52.532Z,12.10
2023-05-08T14:48:56.955Z,11.25
2023-05-08T14:54:01.985Z,12.73
2023-05-08T14:59:05.716Z,12.45
2023-05-08T15:04:09.143Z,11.13
2023-05-08T15:09:13.939Z,11.45
2023-05-08T15:14:17.316Z,11.30
2023-05-08T15:19:20.664Z,11.02
2023-05-08T15:24:25.418Z,11.40
2023-05-08T15:29:28.908Z,11.98
2023-05-08T15:34:32.808Z,12.80
2023-05-08T15:39:38.710Z,12.52
2023-05-08T15:44:54.664Z,10.48
2023-05-08T15:49:58.448Z,11.65
2023-05-08T15:55:03.399Z,12.20
2023-05-08T16:00:09.438Z,10.82
2023-05-08T16:05:13.108Z,10.93
2023-05-08T16:10:18.312Z,10.75
2023-05-08T16:15:21.707Z,9.98
2023-05-08T16:20:25.476Z,10.88
2023-05-08T16:25:30.407Z,10.18
2023-05-08T16:30:33.804Z,8.95
2023-05-08T16:35:37.207Z,8.65
2023-05-08T16:40:42.686Z,9.68
2023-05-08T16:45:46.067Z,10.48
2023-05-08T16:50:49.451Z,9.75
2023-05-08T16:55:54.308Z,8.45
2023-05-08T17:00:57.728Z,7.35
2023-05-08T17:06:01.119Z,8.10
2023-05-08T17:11:06.037Z,8.18
2023-05-08T17:16:09.866Z,7.47
2023-05-08T17:21:13.399Z,8.90
2023-05-08T17:26:18.296Z,10.32
2023-05-08T17:31:22.042Z,9.80
2023-05-08T17:36:25.442Z,8.07
2023-05-08T17:41:30.350Z,10.88
2023-05-08T17:46:33.831Z,11.80
2023-05-08T17:51:38.195Z,8.30
2023-05-08T17:56:43.022Z,14.48
2023-05-08T18:01:46.537Z,8.70
2023-05-08T18:06:51.655Z,7.63
2023-05-08T18:12:02.104Z,23.85
2023-05-08T18:17:05.819Z,12.32
2023-05-08T18:22:09.190Z,8.70
2023-05-08T18:27:13.963Z,9.70
2023-05-08T18:32:17.322Z,7.63
2023-05-08T18:37:20.700Z,8.00
2023-05-08T18:42:25.455Z,6.40
2023-05-08T18:47:28.947Z,8.88
2023-05-08T18:52:32.301Z,8.93
2023-05-08T18:57:37.058Z,9.32
2023-05-08T19:02:41.079Z,7.95
2023-05-08T19:07:45.229Z,9.30
2023-05-08T19:12:50.653Z,7.95
2023-05-08T19:17:54.132Z,8.20
2023-05-08T19:22:57.681Z,9.27
2023-05-08T19:28:04.004Z,8.77
2023-05-08T19:33:07.506Z,9.80
2023-05-08T19:38:10.938Z,8.02
2023-05-08T19:43:15.714Z,8.07
2023-05-08T19:48:20.058Z,7.85
2023-05-08T19:53:23.853Z,8.20
2023-05-08T19:58:28.752Z,10.90
2023-05-08T20:03:32.246Z,9.52
2023-05-08T20:08:36.524Z,17.77
2023-05-08T20:13:41.440Z,13.60
2023-05-08T20:18:44.926Z,12.85
2023-05-08T20:23:48.591Z,9.88
2023-05-08T20:28:53.380Z,8.68
2023-05-08T20:33:56.756Z,11.52
2023-05-08T20:39:00.151Z,9.23
2023-05-08T20:44:04.932Z,9.93
2023-05-08T20:49:08.294Z,8.75
2023-05-08T20:54:11.656Z,8.52
2023-05-08T20:59:17.003Z,8.18
2023-05-08T21:04:20.497Z,8.48
2023-05-08T21:09:23.909Z,9.05
2023-05-08T21:14:28.646Z,8.70
2023-05-08T21:19:32.589Z,10.02
2023-05-08T21:24:36.100Z,8.18
2023-05-08T21:29:42.018Z,7.93
2023-05-08T21:34:45.380Z,8.80
2023-05-08T21:39:48.791Z,8.73
2023-05-08T21:44:55.827Z,8.30
2023-05-08T21:49:59.156Z,11.15
2023-05-08T21:55:08.253Z,8.55
2023-05-08T22:00:15.494Z,8.27
2023-05-08T22:05:25.249Z,9.35
2023-05-08T22:10:28.624Z,7.85
2023-05-08T22:15:33.625Z,9.85
2023-05-08T22:20:37.216Z,9.82
2023-05-08T22:25:40.909Z,9.43
2023-05-08T22:30:45.614Z,10.55
2023-05-08T22:35:49.131Z,8.93
2023-05-08T22:40:52.703Z,8.68
2023-05-08T22:45:58.897Z,9.73
2023-05-08T22:51:02.345Z,11.20
2023-05-08T22:56:06.608Z,11.88
2023-05-08T23:01:11.878Z,10.50
2023-05-08T23:06:15.303Z,9.18
2023-05-08T23:11:18.817Z,10.00
2023-05-08T23:16:23.596Z,12.10
2023-05-08T23:21:27.823Z,10.55
2023-05-08T23:26:31.187Z,10.88
2023-05-08T23:31:36.097Z,12.25
2023-05-08T23:36:39.458Z,11.32
2023-05-08T23:41:42.873Z,12.63
2023-05-08T23:46:47.864Z,13.15
2023-05-08T23:51:51.383Z,10.57
2023-05-08T23:56:54.753Z,10.93
